createdAt,value
2019-05-12T00:02:13.604Z,95.00
2019-05-12T00:06:18.531Z,94.80
2019-05-12T00:10:23.436Z,94.80
2019-05-12T00:14:28.470Z,95.30
2019-05-12T00:18:33.217Z,95.30
2019-05-12T00:22:43.187Z,95.40
2019-05-12T00:26:50.145Z,95.80
2019-05-12T00:30:54.965Z,95.70
2019-05-12T00:34:59.949Z,95.50
2019-05-12T00:39:08.564Z,95.30
2019-05-12T00:43:13.711Z,95.30
2019-05-12T00:47:18.840Z,95.50
2019-05-12T00:51:24.039Z,95.20
2019-05-12T00:55:29.215Z,94.80
2019-05-12T00:59:34.007Z,95.10
2019-05-12T01:03:38.800Z,94.90
2019-05-12T01:07:43.654Z,94.80
2019-05-12T01:11:48.475Z,95.10
2019-05-12T01:15:53.364Z,95.10
2019-05-12T01:19:58.489Z,95.20
2019-05-12T01:24:03.713Z,95.30
2019-05-12T01:28:08.575Z,95.10
2019-05-12T01:32:24.657Z,95.00
2019-05-12T01:36:29.521Z,94.90
2019-05-12T01:40:34.312Z,95.30
2019-05-12T01:44:39.118Z,95.00
2019-05-12T01:48:43.930Z,95.10
2019-05-12T01:52:48.636Z,95.50
2019-05-12T01:56:53.377Z,96.00
2019-05-12T02:00:58.902Z,95.40
2019-05-12T02:05:09.180Z,95.50
2019-05-12T02:09:18.541Z,95.80
2019-05-12T02:13:22.595Z,96.10
2019-05-12T02:17:28.319Z,96.50
2019-05-12T02:21:33.501Z,96.40
2019-05-12T02:25:38.511Z,96.20
2019-05-12T02:29:43.263Z,96.20
2019-05-12T02:33:48.335Z,96.10
2019-05-12T02:37:55.021Z,95.90
2019-05-12T02:41:59.640Z,95.80
2019-05-12T02:46:05.069Z,96.10
2019-05-12T02:50:10.441Z,95.80
2019-05-12T02:54:18.006Z,96.00
2019-05-12T02:58:25.944Z,96.40
2019-05-12T03:02:34.718Z,96.70
2019-05-12T03:06:44.637Z,96.50
2019-05-12T03:10:51.286Z,96.70
2019-05-12T03:14:56.337Z,96.90
2019-05-12T03:19:04.551Z,97.10
2019-05-12T03:23:07.559Z,96.70
2019-05-12T03:27:14.608Z,96.40
2019-05-12T03:31:24.950Z,96.20
2019-05-12T03:35:32.851Z,96.80
2019-05-12T03:39:34.394Z,96.70
2019-05-12T03:43:39.850Z,96.80
2019-05-12T03:47:45.529Z,96.60
2019-05-12T03:51:54.201Z,96.30
2019-05-12T03:55:57.799Z,96.70
2019-05-12T04:00:05.192Z,96.50
2019-05-12T04:04:10.379Z,96.10
2019-05-12T04:08:16.074Z,96.20
2019-05-12T04:12:20.971Z,96.30
2019-05-12T04:16:25.919Z,96.30
2019-05-12T04:20:30.785Z,96.00
2019-05-12T04:24:36.033Z,96.00
2019-05-12T04:28:40.991Z,95.70
2019-05-12T04:32:45.811Z,95.20
2019-05-12T04:36:51.122Z,95.40
2019-05-12T04:40:56.086Z,95.50
2019-05-12T04:45:04.311Z,95.50
2019-05-12T04:49:07.554Z,95.60
2019-05-12T04:53:14.350Z,95.30
2019-05-12T04:57:21.190Z,95.00
2019-05-12T05:01:25.665Z,94.80
2019-05-12T05:05:31.067Z,94.80
2019-05-12T05:09:35.857Z,94.70
2019-05-12T05:13:41.058Z,94.60
2019-05-12T05:17:45.802Z,95.00
2019-05-12T05:21:50.617Z,95.00
2019-05-12T05:25:55.472Z,94.90
2019-05-12T05:30:00.289Z,95.00
2019-05-12T05:34:05.367Z,94.10
2019-05-12T05:38:10.724Z,94.10
2019-05-12T05:42:16.799Z,94.80
2019-05-12T05:46:23.969Z,94.50
2019-05-12T05:50:29.706Z,94.70
2019-05-12T05:54:38.190Z,94.70
2019-05-12T05:58:47.070Z,94.30
2019-05-12T06:02:48.859Z,94.60
2019-05-12T06:06:56.012Z,94.20
2019-05-12T06:11:00.385Z,94.20
2019-05-12T06:15:08.667Z,94.80
2019-05-12T06:19:14.064Z,94.80
2019-05-12T06:23:19.021Z,94.50
2019-05-12T06:27:24.388Z,94.20
2019-05-12T06:31:30.022Z,93.90
2019-05-12T06:35:40.626Z,93.70
2019-05-12T06:39:43.586Z,93.90
2019-05-12T06:43:48.666Z,94.10
2019-05-12T06:47:56.059Z,93.80
2019-05-12T06:52:03.148Z,93.80
2019-05-12T06:56:09.458Z,94.20
2019-05-12T07:00:14.583Z,93.80
2019-05-12T07:04:21.932Z,94.70
2019-05-12T07:08:32.925Z,94.00
2019-05-12T07:12:43.657Z,93.80
2019-05-12T07:16:41.052Z,93.70
2019-05-12T07:20:45.922Z,93.80
2019-05-12T07:24:52.773Z,94.00
2019-05-12T07:28:58.219Z,93.90
2019-05-12T07:33:04.390Z,94.00
2019-05-12T07:37:15.165Z,93.90
2019-05-12T07:41:23.737Z,93.70
2019-05-12T07:45:28.965Z,93.20
2019-05-12T07:49:38.229Z,94.00
2019-05-12T07:53:40.407Z,94.00
2019-05-12T07:57:52.828Z,94.20
2019-05-12T08:01:52.611Z,94.00
2019-05-12T08:06:01.629Z,93.80
2019-05-12T08:10:07.168Z,94.00
2019-05-12T08:14:15.479Z,94.00
2019-05-12T08:18:18.557Z,94.10
2019-05-12T08:22:25.162Z,94.20
2019-05-12T08:26:30.032Z,93.50
2019-05-12T08:30:40.246Z,94.40
2019-05-12T08:34:43.734Z,94.30
2019-05-12T08:38:48.780Z,94.20
2019-05-12T08:42:54.041Z,93.60
2019-05-12T08:46:59.064Z,93.70
2019-05-12T08:51:13.840Z,93.80
2019-05-12T08:55:16.375Z,93.40
2019-05-12T08:59:24.939Z,94.00
2019-05-12T09:03:30.309Z,94.40
2019-05-12T09:07:35.963Z,94.30
2019-05-12T09:11:39.967Z,93.80
2019-05-12T09:15:45.007Z,92.90
2019-05-12T09:19:55.064Z,93.40
2019-05-12T09:23:56.958Z,93.00
2019-05-12T09:28:03.896Z,93.80
2019-05-12T09:32:09.717Z,93.50
2019-05-12T09:36:19.761Z,93.40
2019-05-12T09:40:22.673Z,93.20
2019-05-12T09:44:30.407Z,93.50
2019-05-12T09:48:39.040Z,93.00
2019-05-12T09:52:44.091Z,92.80
2019-05-12T09:56:54.257Z,93.00
2019-05-12T10:00:56.155Z,93.20
2019-05-12T10:05:01.252Z,92.80
2019-05-12T10:09:08.978Z,93.10
2019-05-12T10:13:14.396Z,93.20
2019-05-12T10:17:20.226Z,93.50
2019-05-12T10:21:26.183Z,93.30
2019-05-12T10:25:31.139Z,93.70
2019-05-12T10:29:35.881Z,93.50
2019-05-12T10:33:43.259Z,93.60
2019-05-12T10:37:48.164Z,93.60
2019-05-12T10:41:54.538Z,93.30
2019-05-12T10:45:59.828Z,93.40
2019-05-12T10:50:05.563Z,93.80
2019-05-12T10:54:13.168Z,93.50
2019-05-12T10:58:17.243Z,93.90
2019-05-12T11:02:26.553Z,94.40
2019-05-12T11:06:28.762Z,94.80
2019-05-12T11:10:33.636Z,94.60
2019-05-12T11:14:38.594Z,94.70
2019-05-12T11:18:44.025Z,94.00
2019-05-12T11:22:48.849Z,94.90
2019-05-12T11:26:53.966Z,94.00
2019-05-12T11:30:58.777Z,94.40
2019-05-12T11:35:05.396Z,94.10
2019-05-12T11:39:10.402Z,94.00
2019-05-12T11:43:15.245Z,93.80
2019-05-12T11:47:24.257Z,92.90
2019-05-12T11:51:30.257Z,93.00
2019-05-12T11:55:34.959Z,93.00
2019-05-12T11:59:40.088Z,92.90
2019-05-12T12:03:45.249Z,92.40
2019-05-12T12:07:52.748Z,91.90
2019-05-12T12:12:02.314Z,92.80
2019-05-12T12:16:11.426Z,92.60
2019-05-12T12:20:22.418Z,92.90
2019-05-12T12:24:29.949Z,94.10
2019-05-12T12:28:31.262Z,93.50
2019-05-12T12:32:39.322Z,93.10
2019-05-12T12:36:44.184Z,92.50
2019-05-12T12:40:49.076Z,92.10
2019-05-12T12:44:58.906Z,91.80
2019-05-12T12:49:06.394Z,91.40
2019-05-12T12:53:07.140Z,91.40
2019-05-12T12:57:13.612Z,91.60
2019-05-12T13:01:26.879Z,92.20
2019-05-12T13:05:25.529Z,90.70
2019-05-12T13:09:30.352Z,91.20
2019-05-12T13:13:35.446Z,90.40
2019-05-12T13:17:41.949Z,91.00
2019-05-12T13:21:49.087Z,91.00
2019-05-12T13:25:54.769Z,91.30
2019-05-12T13:30:05.265Z,91.30
2019-05-12T13:34:09.098Z,91.50
2019-05-12T13:38:14.493Z,91.50
2019-05-12T13:42:19.958Z,90.90
2019-05-12T13:46:24.940Z,91.10
2019-05-12T13:50:30.746Z,90.60
2019-05-12T13:54:35.820Z,91.30
2019-05-12T13:58:43.636Z,91.10
2019-05-12T14:02:48.909Z,90.00
2019-05-12T14:06:54.046Z,90.00
2019-05-12T14:10:59.900Z,90.80
2019-05-12T14:15:05.897Z,88.50
2019-05-12T14:19:10.789Z,89.00
2019-05-12T14:23:15.733Z,88.80
2019-05-12T14:27:27.131Z,90.00
2019-05-12T14:31:35.149Z,88.10
2019-05-12T14:35:41.201Z,87.80
2019-05-12T14:39:46.154Z,89.10
2019-05-12T14:43:55.767Z,89.70
2019-05-12T14:48:00.053Z,89.10
2019-05-12T14:52:03.455Z,89.50
2019-05-12T14:56:09.581Z,88.00
2019-05-12T15:00:19.810Z,87.60
2019-05-12T15:04:27.829Z,89.00
2019-05-12T15:08:36.379Z,89.30
2019-05-12T15:12:35.120Z,89.90
2019-05-12T15:16:40.915Z,89.60
2019-05-12T15:20:49.923Z,88.90
2019-05-12T15:24:57.029Z,89.60
2019-05-12T15:28:59.429Z,90.10
2019-05-12T15:33:04.625Z,88.70
2019-05-12T15:37:10.231Z,90.20
2019-05-12T15:41:18.499Z,89.60
2019-05-12T15:45:23.838Z,89.70
2019-05-12T15:49:28.473Z,89.90
2019-05-12T15:53:35.744Z,88.60
2019-05-12T15:57:39.857Z,89.30
2019-05-12T16:01:44.674Z,90.00
2019-05-12T16:05:49.447Z,90.00
2019-05-12T16:09:54.796Z,89.80
2019-05-12T16:13:59.976Z,89.60
2019-05-12T16:18:09.749Z,89.70
2019-05-12T16:22:11.341Z,88.60
2019-05-12T16:26:17.961Z,89.00
2019-05-12T16:30:26.035Z,88.50
2019-05-12T16:34:36.067Z,86.90
2019-05-12T16:38:37.079Z,87.70
2019-05-12T16:42:48.326Z,86.80
2019-05-12T16:46:48.493Z,88.80
2019-05-12T16:50:53.390Z,85.60
2019-05-12T16:54:58.624Z,87.60
2019-05-12T16:59:08.876Z,87.80
2019-05-12T17:03:10.102Z,87.40
2019-05-12T17:07:17.237Z,87.70
2019-05-12T17:11:27.923Z,87.20
2019-05-12T17:15:28.026Z,86.60
2019-05-12T17:19:34.052Z,87.20
2019-05-12T17:23:39.132Z,87.30
2019-05-12T17:27:44.792Z,84.00
2019-05-12T17:31:50.085Z,83.40
2019-05-12T17:35:55.067Z,85.90
2019-05-12T17:39:59.880Z,86.60
2019-05-12T17:44:05.205Z,87.10
2019-05-12T17:48:10.030Z,87.20
2019-05-12T17:52:18.356Z,86.70
2019-05-12T17:56:25.319Z,86.70
2019-05-12T18:00:29.375Z,86.50
2019-05-12T18:04:37.026Z,87.40
2019-05-12T18:08:40.772Z,87.90
2019-05-12T18:12:45.685Z,85.30
2019-05-12T18:16:53.679Z,85.60
2019-05-12T18:20:57.305Z,84.40
2019-05-12T18:25:04.290Z,83.50
2019-05-12T18:29:08.841Z,84.00
2019-05-12T18:33:13.859Z,86.60
2019-05-12T18:37:19.597Z,86.60
2019-05-12T18:41:24.517Z,87.30
2019-05-12T18:45:29.881Z,87.40
2019-05-12T18:49:34.646Z,88.00
2019-05-12T18:53:39.489Z,88.30
2019-05-12T18:57:47.953Z,88.30
2019-05-12T19:01:50.767Z,88.60
2019-05-12T19:05:58.118Z,88.40
2019-05-12T19:10:03.744Z,88.60
2019-05-12T19:14:08.997Z,87.70
2019-05-12T19:18:18.019Z,87.20
2019-05-12T19:22:20.286Z,87.80
2019-05-12T19:26:26.137Z,87.90
2019-05-12T19:30:30.991Z,87.30
2019-05-12T19:34:37.514Z,88.90
2019-05-12T19:38:43.907Z,89.40
2019-05-12T19:42:53.812Z,89.60
2019-05-12T19:46:55.682Z,89.60
2019-05-12T19:51:15.967Z,88.90
2019-05-12T19:55:08.088Z,89.00
2019-05-12T19:59:14.647Z,88.60
2019-05-12T20:03:19.348Z,88.60
2019-05-12T20:07:24.172Z,86.50
2019-05-12T20:11:31.352Z,86.70
2019-05-12T20:15:40.953Z,86.90
2019-05-12T20:19:43.580Z,88.30
2019-05-12T20:23:50.221Z,90.00
2019-05-12T20:28:03.992Z,90.80
2019-05-12T20:32:01.430Z,91.00
2019-05-12T20:36:06.244Z,91.30
2019-05-12T20:40:13.455Z,91.30
2019-05-12T20:44:19.940Z,91.10
2019-05-12T20:48:26.476Z,91.30
2019-05-12T20:52:30.820Z,91.40
2019-05-12T20:56:36.674Z,91.60
2019-05-12T21:00:45.701Z,91.40
2019-05-12T21:04:59.999Z,91.50
2019-05-12T21:08:56.624Z,91.70
2019-05-12T21:13:01.201Z,91.40
2019-05-12T21:17:09.416Z,91.10
2019-05-12T21:21:14.352Z,90.50
2019-05-12T21:25:19.101Z,90.70
2019-05-12T21:29:25.623Z,90.00
2019-05-12T21:33:31.275Z,90.30
2019-05-12T21:37:45.181Z,90.80
2019-05-12T21:41:50.503Z,91.00
2019-05-12T21:45:50.018Z,90.80
2019-05-12T21:50:06.677Z,90.70
2019-05-12T21:54:21.090Z,90.60
2019-05-12T21:58:25.812Z,90.60
2019-05-12T22:02:34.000Z,90.40
2019-05-12T22:06:38.641Z,90.20
2019-05-12T22:10:43.830Z,89.40
2019-05-12T22:14:48.888Z,89.40
2019-05-12T22:18:58.687Z,90.20
2019-05-12T22:23:09.583Z,90.70
2019-05-12T22:27:16.154Z,91.40
2019-05-12T22:31:16.624Z,91.50
2019-05-12T22:35:24.279Z,91.40
2019-05-12T22:39:28.141Z,91.60
2019-05-12T22:43:41.086Z,91.90
2019-05-12T22:47:39.477Z,92.20
2019-05-12T22:51:46.542Z,92.50
2019-05-12T22:55:53.266Z,92.10
2019-05-12T22:59:57.200Z,91.90
2019-05-12T23:04:03.799Z,91.60
2019-05-12T23:08:09.022Z,91.20
2019-05-12T23:12:18.480Z,91.60
2019-05-12T23:16:26.106Z,91.40
2019-05-12T23:20:30.937Z,91.40
2019-05-12T23:24:37.048Z,91.20
2019-05-12T23:28:45.522Z,91.30
2019-05-12T23:32:51.483Z,91.50
2019-05-12T23:36:56.891Z,91.70
2019-05-12T23:40:59.817Z,91.50
2019-05-12T23:45:04.993Z,91.70
2019-05-12T23:49:09.792Z,91.90
2019-05-12T23:53:14.517Z,92.20
2019-05-12T23:57:19.388Z,91.60
